Axixa do Tocantins, Brazil
Current Conditions -  °F | °C
As of 9:00 AM on Saturday 20 Dec 2014 (Local Time) from SBIZ Reporting Station
Broken Clouds Broken Clouds  
Wind Chill: 81°   Ceiling: 7000
Heat Index: 86°   Visibility: 6mi
Dew Point: 75°   Wind: 3mph
Humidity: 84%   Direction: 50°NE
Pressure: 29.91"   Gusts: NA
Location:  5.62°S, 47.79°W
Report Text: SBIZ 201200Z 05003KT 9999 FEW003 BKN070 27/24 Q1013
Loading
Personal Weather Stations






























Interactive Weather Map New forecast layout! Learn more

10-Day Weather Forecast

Advertisements
Track Severe Weather on mobile